sensor_id;sensor_type;location;lat;lon;timestamp;temperature;humidity
10903;DHT22;5504;47.312;11.060;2023-02-28T00:00:22;1.00;73.00
10903;DHT22;5504;47.312;11.060;2023-02-28T00:02:48;0.90;73.30
10903;DHT22;5504;47.312;11.060;2023-02-28T00:05:17;1.00;73.40
10903;DHT22;5504;47.312;11.060;2023-02-28T00:07:43;1.00;73.40
10903;DHT22;5504;47.312;11.060;2023-02-28T00:10:11;1.00;73.60
10903;DHT22;5504;47.312;11.060;2023-02-28T00:12:38;1.00;73.60
10903;DHT22;5504;47.312;11.060;2023-02-28T00:15:09;0.90;73.60
10903;DHT22;5504;47.312;11.060;2023-02-28T00:17:36;0.90;73.70
10903;DHT22;5504;47.312;11.060;2023-02-28T00:20:03;0.90;73.70
10903;DHT22;5504;47.312;11.060;2023-02-28T00:22:30;0.90;73.60
10903;DHT22;5504;47.312;11.060;2023-02-28T00:24:56;0.80;73.70
10903;DHT22;5504;47.312;11.060;2023-02-28T00:27:22;0.50;74.50
10903;DHT22;5504;47.312;11.060;2023-02-28T00:29:47;0.70;74.50
10903;DHT22;5504;47.312;11.060;2023-02-28T00:32:13;0.60;74.70
10903;DHT22;5504;47.312;11.060;2023-02-28T00:34:39;0.60;74.80
10903;DHT22;5504;47.312;11.060;2023-02-28T00:37:07;0.70;74.30
10903;DHT22;5504;47.312;11.060;2023-02-28T00:39:36;0.70;74.20
10903;DHT22;5504;47.312;11.060;2023-02-28T00:42:03;0.80;74.00
10903;DHT22;5504;47.312;11.060;2023-02-28T00:44:29;0.80;74.10
10903;DHT22;5504;47.312;11.060;2023-02-28T00:46:56;0.80;73.80
10903;DHT22;5504;47.312;11.060;2023-02-28T00:49:22;0.80;73.60
10903;DHT22;5504;47.312;11.060;2023-02-28T00:51:48;0.90;73.20
10903;DHT22;5504;47.312;11.060;2023-02-28T00:54:14;0.80;73.90
10903;DHT22;5504;47.312;11.060;2023-02-28T00:56:40;0.80;73.90
10903;DHT22;5504;47.312;11.060;2023-02-28T00:59:05;0.70;73.90
10903;DHT22;5504;47.312;11.060;2023-02-28T01:01:31;0.60;74.50
10903;DHT22;5504;47.312;11.060;2023-02-28T01:03:57;0.50;74.50
10903;DHT22;5504;47.312;11.060;2023-02-28T01:06:23;0.70;74.60
10903;DHT22;5504;47.312;11.060;2023-02-28T01:08:48;0.80;74.00
10903;DHT22;5504;47.312;11.060;2023-02-28T01:11:16;0.80;73.90
10903;DHT22;5504;47.312;11.060;2023-02-28T01:13:43;0.70;74.00
10903;DHT22;5504;47.312;11.060;2023-02-28T01:16:09;0.70;74.10
10903;DHT22;5504;47.312;11.060;2023-02-28T01:18:36;0.70;74.10
10903;DHT22;5504;47.312;11.060;2023-02-28T01:21:11;0.40;74.70
10903;DHT22;5504;47.312;11.060;2023-02-28T01:23:38;0.10;75.30
10903;DHT22;5504;47.312;11.060;2023-02-28T01:26:10;0.30;75.60
10903;DHT22;5504;47.312;11.060;2023-02-28T01:28:36;0.40;75.20
10903;DHT22;5504;47.312;11.060;2023-02-28T01:31:02;0.50;74.90
10903;DHT22;5504;47.312;11.060;2023-02-28T01:33:28;0.60;74.50
10903;DHT22;5504;47.312;11.060;2023-02-28T01:36:02;0.60;74.40
10903;DHT22;5504;47.312;11.060;2023-02-28T01:38:29;0.50;74.70
10903;DHT22;5504;47.312;11.060;2023-02-28T01:40:55;0.60;75.10
10903;DHT22;5504;47.312;11.060;2023-02-28T01:43:35;0.70;74.60
10903;DHT22;5504;47.312;11.060;2023-02-28T01:46:17;0.70;74.30
10903;DHT22;5504;47.312;11.060;2023-02-28T01:48:52;0.80;74.20
10903;DHT22;5504;47.312;11.060;2023-02-28T01:54:07;0.80;74.60
10903;DHT22;5504;47.312;11.060;2023-02-28T01:56:52;0.80;74.30
10903;DHT22;5504;47.312;11.060;2023-02-28T01:59:39;0.70;74.20
10903;DHT22;5504;47.312;11.060;2023-02-28T02:02:15;0.70;74.50
10903;DHT22;5504;47.312;11.060;2023-02-28T02:05:10;0.60;75.00
10903;DHT22;5504;47.312;11.060;2023-02-28T02:07:38;0.60;75.10
10903;DHT22;5504;47.312;11.060;2023-02-28T02:10:16;0.50;75.10
10903;DHT22;5504;47.312;11.060;2023-02-28T02:13:17;0.60;74.80
10903;DHT22;5504;47.312;11.060;2023-02-28T02:16:12;0.60;74.30
10903;DHT22;5504;47.312;11.060;2023-02-28T02:18:42;0.50;74.10
10903;DHT22;5504;47.312;11.060;2023-02-28T02:21:50;0.30;75.20
10903;DHT22;5504;47.312;11.060;2023-02-28T02:24:45;0.40;75.00
10903;DHT22;5504;47.312;11.060;2023-02-28T02:41:21;0.20;76.80
10903;DHT22;5504;47.312;11.060;2023-02-28T02:44:04;0.10;77.00
10903;DHT22;5504;47.312;11.060;2023-02-28T02:46:33;0.10;77.40
10903;DHT22;5504;47.312;11.060;2023-02-28T02:49:00;0.10;77.50
10903;DHT22;5504;47.312;11.060;2023-02-28T02:51:30;0.10;77.70
10903;DHT22;5504;47.312;11.060;2023-02-28T02:54:04;0.20;77.60
10903;DHT22;5504;47.312;11.060;2023-02-28T02:56:33;0.30;76.50
10903;DHT22;5504;47.312;11.060;2023-02-28T02:59:04;0.40;75.60
10903;DHT22;5504;47.312;11.060;2023-02-28T03:01:34;0.30;75.30
10903;DHT22;5504;47.312;11.060;2023-02-28T03:04:07;0.30;75.40
10903;DHT22;5504;47.312;11.060;2023-02-28T03:06:33;0.20;75.80
10903;DHT22;5504;47.312;11.060;2023-02-28T03:09:00;0.30;76.10
10903;DHT22;5504;47.312;11.060;2023-02-28T03:11:27;0.30;75.70
10903;DHT22;5504;47.312;11.060;2023-02-28T03:27:44;-0.10;77.10
10903;DHT22;5504;47.312;11.060;2023-02-28T03:33:16;0.00;77.50
10903;DHT22;5504;47.312;11.060;2023-02-28T03:35:59;0.10;75.90
10903;DHT22;5504;47.312;11.060;2023-02-28T03:38:38;0.00;75.70
10903;DHT22;5504;47.312;11.060;2023-02-28T03:41:14;-0.20;75.70
10903;DHT22;5504;47.312;11.060;2023-02-28T03:43:45;-0.20;75.90
10903;DHT22;5504;47.312;11.060;2023-02-28T03:46:15;-0.30;75.90
10903;DHT22;5504;47.312;11.060;2023-02-28T03:48:45;-0.50;76.30
10903;DHT22;5504;47.312;11.060;2023-02-28T03:51:17;-0.60;76.40
10903;DHT22;5504;47.312;11.060;2023-02-28T03:53:52;-0.60;76.40
10903;DHT22;5504;47.312;11.060;2023-02-28T03:56:34;-0.80;76.70
10903;DHT22;5504;47.312;11.060;2023-02-28T03:59:34;-1.00;77.00
10903;DHT22;5504;47.312;11.060;2023-02-28T04:02:03;-1.10;77.30
10903;DHT22;5504;47.312;11.060;2023-02-28T04:04:28;-1.10;77.90
10903;DHT22;5504;47.312;11.060;2023-02-28T04:07:05;-1.10;77.80
10903;DHT22;5504;47.312;11.060;2023-02-28T04:09:31;-1.10;78.10
10903;DHT22;5504;47.312;11.060;2023-02-28T04:11:58;-1.00;77.90
10903;DHT22;5504;47.312;11.060;2023-02-28T04:14:24;-1.10;77.30
10903;DHT22;5504;47.312;11.060;2023-02-28T04:16:50;-1.20;78.00
10903;DHT22;5504;47.312;11.060;2023-02-28T04:19:16;-1.10;78.10
10903;DHT22;5504;47.312;11.060;2023-02-28T04:21:50;-1.10;76.80
10903;DHT22;5504;47.312;11.060;2023-02-28T04:24:24;-1.10;76.20
10903;DHT22;5504;47.312;11.060;2023-02-28T04:26:52;-1.10;75.80
10903;DHT22;5504;47.312;11.060;2023-02-28T04:29:30;-1.20;76.30
10903;DHT22;5504;47.312;11.060;2023-02-28T04:31:57;-1.20;76.70
10903;DHT22;5504;47.312;11.060;2023-02-28T04:34:25;-1.50;77.10
10903;DHT22;5504;47.312;11.060;2023-02-28T04:36:51;-1.50;77.70
10903;DHT22;5504;47.312;11.060;2023-02-28T04:39:20;-1.50;77.80
10903;DHT22;5504;47.312;11.060;2023-02-28T04:41:46;-1.40;77.90
10903;DHT22;5504;47.312;11.060;2023-02-28T04:44:13;-1.30;77.80
10903;DHT22;5504;47.312;11.060;2023-02-28T04:46:39;-1.30;77.80
10903;DHT22;5504;47.312;11.060;2023-02-28T04:49:04;-1.30;77.70
10903;DHT22;5504;47.312;11.060;2023-02-28T04:51:30;-1.20;77.50
10903;DHT22;5504;47.312;11.060;2023-02-28T04:53:56;-1.30;77.60
10903;DHT22;5504;47.312;11.060;2023-02-28T04:56:22;-1.20;77.30
10903;DHT22;5504;47.312;11.060;2023-02-28T04:58:47;-1.30;77.40
10903;DHT22;5504;47.312;11.060;2023-02-28T05:01:21;-1.30;77.10
10903;DHT22;5504;47.312;11.060;2023-02-28T05:03:47;-1.30;77.40
10903;DHT22;5504;47.312;11.060;2023-02-28T05:06:13;-1.30;77.60
10903;DHT22;5504;47.312;11.060;2023-02-28T05:08:39;-1.40;77.60
10903;DHT22;5504;47.312;11.060;2023-02-28T05:11:09;-1.30;77.50
10903;DHT22;5504;47.312;11.060;2023-02-28T05:13:37;-1.30;77.30
10903;DHT22;5504;47.312;11.060;2023-02-28T05:16:02;-1.40;77.30
10903;DHT22;5504;47.312;11.060;2023-02-28T05:18:28;-1.50;77.70
10903;DHT22;5504;47.312;11.060;2023-02-28T05:20:54;-1.50;78.10
10903;DHT22;5504;47.312;11.060;2023-02-28T05:23:21;-1.40;78.30
10903;DHT22;5504;47.312;11.060;2023-02-28T05:25:47;-1.30;78.30
10903;DHT22;5504;47.312;11.060;2023-02-28T05:28:13;-1.30;78.20
10903;DHT22;5504;47.312;11.060;2023-02-28T05:30:39;-1.30;78.10
10903;DHT22;5504;47.312;11.060;2023-02-28T05:33:05;-1.20;77.80
10903;DHT22;5504;47.312;11.060;2023-02-28T05:35:31;-1.20;77.30
10903;DHT22;5504;47.312;11.060;2023-02-28T05:37:57;-1.20;76.90
10903;DHT22;5504;47.312;11.060;2023-02-28T05:40:23;-1.20;76.60
10903;DHT22;5504;47.312;11.060;2023-02-28T05:42:50;-1.20;76.80
10903;DHT22;5504;47.312;11.060;2023-02-28T05:45:16;-1.50;76.70
10903;DHT22;5504;47.312;11.060;2023-02-28T05:47:42;-1.60;77.10
10903;DHT22;5504;47.312;11.060;2023-02-28T05:50:08;-1.60;78.00
10903;DHT22;5504;47.312;11.060;2023-02-28T05:52:36;-1.70;78.30
10903;DHT22;5504;47.312;11.060;2023-02-28T05:55:03;-1.80;78.50
10903;DHT22;5504;47.312;11.060;2023-02-28T05:57:29;-1.90;78.40
10903;DHT22;5504;47.312;11.060;2023-02-28T05:59:54;-1.70;79.10
10903;DHT22;5504;47.312;11.060;2023-02-28T06:02:20;-1.60;79.30
10903;DHT22;5504;47.312;11.060;2023-02-28T06:04:46;-1.60;78.90
10903;DHT22;5504;47.312;11.060;2023-02-28T06:07:11;-1.60;78.60
10903;DHT22;5504;47.312;11.060;2023-02-28T06:09:38;-1.60;78.80
10903;DHT22;5504;47.312;11.060;2023-02-28T06:12:05;-1.60;78.80
10903;DHT22;5504;47.312;11.060;2023-02-28T06:14:34;-1.70;78.50
10903;DHT22;5504;47.312;11.060;2023-02-28T06:17:00;-1.60;78.90
10903;DHT22;5504;47.312;11.060;2023-02-28T06:19:27;-1.40;78.50
10903;DHT22;5504;47.312;11.060;2023-02-28T06:21:54;-1.30;77.50
10903;DHT22;5504;47.312;11.060;2023-02-28T06:24:21;-1.30;77.30
10903;DHT22;5504;47.312;11.060;2023-02-28T06:26:48;-1.30;77.50
10903;DHT22;5504;47.312;11.060;2023-02-28T06:29:14;-1.50;77.50
10903;DHT22;5504;47.312;11.060;2023-02-28T06:31:42;-1.60;78.50
10903;DHT22;5504;47.312;11.060;2023-02-28T06:34:09;-1.40;79.10
10903;DHT22;5504;47.312;11.060;2023-02-28T06:36:38;-1.20;78.70
10903;DHT22;5504;47.312;11.060;2023-02-28T06:39:04;-1.40;78.10
10903;DHT22;5504;47.312;11.060;2023-02-28T06:41:30;-1.30;78.70
10903;DHT22;5504;47.312;11.060;2023-02-28T06:43:55;-1.10;78.90
10903;DHT22;5504;47.312;11.060;2023-02-28T06:46:21;-0.70;78.90
10903;DHT22;5504;47.312;11.060;2023-02-28T06:48:47;-0.50;77.70
10903;DHT22;5504;47.312;11.060;2023-02-28T06:51:16;-0.10;77.20
10903;DHT22;5504;47.312;11.060;2023-02-28T06:53:42;0.10;76.00
10903;DHT22;5504;47.312;11.060;2023-02-28T06:56:13;0.20;75.00
10903;DHT22;5504;47.312;11.060;2023-02-28T06:58:40;0.30;74.50
10903;DHT22;5504;47.312;11.060;2023-02-28T07:01:07;0.30;74.10
10903;DHT22;5504;47.312;11.060;2023-02-28T07:03:34;0.40;74.50
10903;DHT22;5504;47.312;11.060;2023-02-28T07:06:00;0.60;75.30
10903;DHT22;5504;47.312;11.060;2023-02-28T07:08:26;1.00;74.20
10903;DHT22;5504;47.312;11.060;2023-02-28T07:10:56;1.20;72.70
10903;DHT22;5504;47.312;11.060;2023-02-28T07:13:22;1.40;72.50
10903;DHT22;5504;47.312;11.060;2023-02-28T07:16:03;1.60;71.90
10903;DHT22;5504;47.312;11.060;2023-02-28T07:18:29;1.80;72.00
10903;DHT22;5504;47.312;11.060;2023-02-28T07:20:55;1.60;71.10
10903;DHT22;5504;47.312;11.060;2023-02-28T07:23:21;1.80;71.50
10903;DHT22;5504;47.312;11.060;2023-02-28T07:25:46;1.40;71.00
10903;DHT22;5504;47.312;11.060;2023-02-28T07:28:13;1.40;73.50
10903;DHT22;5504;47.312;11.060;2023-02-28T07:30:39;1.80;72.90
10903;DHT22;5504;47.312;11.060;2023-02-28T07:33:05;1.80;71.20
10903;DHT22;5504;47.312;11.060;2023-02-28T07:35:31;2.30;71.60
10903;DHT22;5504;47.312;11.060;2023-02-28T07:38:00;2.70;70.60
10903;DHT22;5504;47.312;11.060;2023-02-28T07:40:26;2.50;69.40
10903;DHT22;5504;47.312;11.060;2023-02-28T07:42:52;2.90;70.10
10903;DHT22;5504;47.312;11.060;2023-02-28T07:45:18;2.40;67.80
10903;DHT22;5504;47.312;11.060;2023-02-28T07:47:45;1.50;70.20
10903;DHT22;5504;47.312;11.060;2023-02-28T07:50:12;1.90;71.70
10903;DHT22;5504;47.312;11.060;2023-02-28T07:52:39;2.60;71.80
10903;DHT22;5504;47.312;11.060;2023-02-28T07:55:06;2.60;69.00
10903;DHT22;5504;47.312;11.060;2023-02-28T07:57:32;3.20;69.20
10903;DHT22;5504;47.312;11.060;2023-02-28T07:59:58;3.60;67.30
10903;DHT22;5504;47.312;11.060;2023-02-28T08:02:24;3.00;66.90
10903;DHT22;5504;47.312;11.060;2023-02-28T08:04:49;2.30;68.50
10903;DHT22;5504;47.312;11.060;2023-02-28T08:07:16;2.20;69.20
10903;DHT22;5504;47.312;11.060;2023-02-28T08:09:43;1.80;70.20
10903;DHT22;5504;47.312;11.060;2023-02-28T08:12:09;2.60;70.20
10903;DHT22;5504;47.312;11.060;2023-02-28T08:14:36;2.70;69.40
10903;DHT22;5504;47.312;11.060;2023-02-28T08:17:02;3.10;68.40
10903;DHT22;5504;47.312;11.060;2023-02-28T08:19:29;3.60;67.30
10903;DHT22;5504;47.312;11.060;2023-02-28T08:21:55;3.50;66.50
10903;DHT22;5504;47.312;11.060;2023-02-28T08:24:20;3.90;67.00
10903;DHT22;5504;47.312;11.060;2023-02-28T08:26:46;4.50;65.40
10903;DHT22;5504;47.312;11.060;2023-02-28T08:29:12;4.50;64.90
10903;DHT22;5504;47.312;11.060;2023-02-28T08:31:37;4.40;63.00
10903;DHT22;5504;47.312;11.060;2023-02-28T08:34:11;5.30;63.60
10903;DHT22;5504;47.312;11.060;2023-02-28T08:36:37;5.70;61.90
10903;DHT22;5504;47.312;11.060;2023-02-28T08:39:04;5.10;60.20
10903;DHT22;5504;47.312;11.060;2023-02-28T08:41:30;5.30;62.60
10903;DHT22;5504;47.312;11.060;2023-02-28T08:43:56;5.30;60.40
10903;DHT22;5504;47.312;11.060;2023-02-28T08:46:22;5.80;62.10
10903;DHT22;5504;47.312;11.060;2023-02-28T08:48:51;5.40;60.00
10903;DHT22;5504;47.312;11.060;2023-02-28T08:51:18;5.70;61.40
10903;DHT22;5504;47.312;11.060;2023-02-28T08:53:47;5.40;60.10
10903;DHT22;5504;47.312;11.060;2023-02-28T08:56:15;5.50;61.80
10903;DHT22;5504;47.312;11.060;2023-02-28T08:58:42;6.40;61.40
10903;DHT22;5504;47.312;11.060;2023-02-28T09:01:13;6.50;60.00
10903;DHT22;5504;47.312;11.060;2023-02-28T09:03:40;7.20;59.60
10903;DHT22;5504;47.312;11.060;2023-02-28T09:06:07;7.80;58.50
10903;DHT22;5504;47.312;11.060;2023-02-28T09:08:33;8.20;56.50
10903;DHT22;5504;47.312;11.060;2023-02-28T09:10:59;7.10;56.00
10903;DHT22;5504;47.312;11.060;2023-02-28T09:13:26;6.20;58.80
10903;DHT22;5504;47.312;11.060;2023-02-28T09:15:52;7.10;60.20
10903;DHT22;5504;47.312;11.060;2023-02-28T09:18:18;8.20;57.70
10903;DHT22;5504;47.312;11.060;2023-02-28T09:20:44;8.50;56.90
10903;DHT22;5504;47.312;11.060;2023-02-28T09:23:11;8.40;55.90
10903;DHT22;5504;47.312;11.060;2023-02-28T09:25:38;7.40;56.10
10903;DHT22;5504;47.312;11.060;2023-02-28T09:28:10;7.00;57.40
10903;DHT22;5504;47.312;11.060;2023-02-28T09:30:37;8.10;57.60
10903;DHT22;5504;47.312;11.060;2023-02-28T09:33:02;9.00;55.60
10903;DHT22;5504;47.312;11.060;2023-02-28T09:35:28;9.60;54.30
10903;DHT22;5504;47.312;11.060;2023-02-28T09:37:56;8.50;53.50
10903;DHT22;5504;47.312;11.060;2023-02-28T09:40:24;8.20;54.00
10903;DHT22;5504;47.312;11.060;2023-02-28T09:42:55;8.70;54.60
10903;DHT22;5504;47.312;11.060;2023-02-28T09:45:33;9.80;53.20
10903;DHT22;5504;47.312;11.060;2023-02-28T09:48:03;9.70;53.00
10903;DHT22;5504;47.312;11.060;2023-02-28T09:50:43;8.60;53.40
10903;DHT22;5504;47.312;11.060;2023-02-28T09:53:32;7.80;54.90
10903;DHT22;5504;47.312;11.060;2023-02-28T09:56:25;6.30;56.30
10903;DHT22;5504;47.312;11.060;2023-02-28T09:59:02;6.50;57.80
10903;DHT22;5504;47.312;11.060;2023-02-28T10:06:51;8.80;52.10
10903;DHT22;5504;47.312;11.060;2023-02-28T10:09:24;8.50;53.90
10903;DHT22;5504;47.312;11.060;2023-02-28T10:11:52;8.60;54.70
10903;DHT22;5504;47.312;11.060;2023-02-28T10:14:21;9.20;54.20
10903;DHT22;5504;47.312;11.060;2023-02-28T10:17:03;8.60;52.60
10903;DHT22;5504;47.312;11.060;2023-02-28T10:22:21;9.40;52.10
10903;DHT22;5504;47.312;11.060;2023-02-28T10:24:58;9.70;51.20
10903;DHT22;5504;47.312;11.060;2023-02-28T10:27:30;8.10;51.10
10903;DHT22;5504;47.312;11.060;2023-02-28T10:29:58;6.70;55.10
10903;DHT22;5504;47.312;11.060;2023-02-28T10:32:36;7.90;56.50
10903;DHT22;5504;47.312;11.060;2023-02-28T10:35:21;8.80;55.80
10903;DHT22;5504;47.312;11.060;2023-02-28T10:37:50;8.60;53.20
10903;DHT22;5504;47.312;11.060;2023-02-28T10:43:19;9.50;53.40
10903;DHT22;5504;47.312;11.060;2023-02-28T10:48:48;9.60;52.10
10903;DHT22;5504;47.312;11.060;2023-02-28T10:51:16;8.70;52.70
10903;DHT22;5504;47.312;11.060;2023-02-28T11:07:03;8.50;53.60
10903;DHT22;5504;47.312;11.060;2023-02-28T11:09:38;8.50;55.20
10903;DHT22;5504;47.312;11.060;2023-02-28T11:12:20;8.90;53.50
10903;DHT22;5504;47.312;11.060;2023-02-28T11:14:49;10.20;55.50
10903;DHT22;5504;47.312;11.060;2023-02-28T11:17:26;11.00;52.20
10903;DHT22;5504;47.312;11.060;2023-02-28T11:19:56;9.90;50.80
10903;DHT22;5504;47.312;11.060;2023-02-28T11:22:28;7.70;53.50
10903;DHT22;5504;47.312;11.060;2023-02-28T11:24:58;9.00;54.60
10903;DHT22;5504;47.312;11.060;2023-02-28T11:29:57;9.50;53.90
10903;DHT22;5504;47.312;11.060;2023-02-28T11:32:25;10.60;52.60
10903;DHT22;5504;47.312;11.060;2023-02-28T11:37:35;9.80;52.40
10903;DHT22;5504;47.312;11.060;2023-02-28T11:40:02;11.20;54.50
10903;DHT22;5504;47.312;11.060;2023-02-28T11:48:40;11.10;52.20
10903;DHT22;5504;47.312;11.060;2023-02-28T11:51:38;10.70;51.80
10903;DHT22;5504;47.312;11.060;2023-02-28T11:56:39;11.90;51.50
10903;DHT22;5504;47.312;11.060;2023-02-28T12:09:33;11.00;50.50
10903;DHT22;5504;47.312;11.060;2023-02-28T12:17:50;10.90;50.90
10903;DHT22;5504;47.312;11.060;2023-02-28T12:20:26;10.60;50.60
10903;DHT22;5504;47.312;11.060;2023-02-28T12:28:31;9.30;53.50
10903;DHT22;5504;47.312;11.060;2023-02-28T12:31:02;9.90;51.40
10903;DHT22;5504;47.312;11.060;2023-02-28T12:33:36;10.20;54.10
10903;DHT22;5504;47.312;11.060;2023-02-28T12:36:13;11.40;53.20
10903;DHT22;5504;47.312;11.060;2023-02-28T12:41:37;12.40;50.90
10903;DHT22;5504;47.312;11.060;2023-02-28T12:44:12;11.70;50.30
10903;DHT22;5504;47.312;11.060;2023-02-28T12:46:42;11.10;51.60
10903;DHT22;5504;47.312;11.060;2023-02-28T12:51:44;12.10;52.20
10903;DHT22;5504;47.312;11.060;2023-02-28T12:54:35;12.50;50.20
10903;DHT22;5504;47.312;11.060;2023-02-28T12:57:05;12.20;50.50
10903;DHT22;5504;47.312;11.060;2023-02-28T13:02:21;12.00;51.40
10903;DHT22;5504;47.312;11.060;2023-02-28T13:10:16;13.50;49.40
10903;DHT22;5504;47.312;11.060;2023-02-28T13:12:51;12.10;48.20
10903;DHT22;5504;47.312;11.060;2023-02-28T13:15:26;12.10;51.80
10903;DHT22;5504;47.312;11.060;2023-02-28T13:17:56;11.10;51.80
10903;DHT22;5504;47.312;11.060;2023-02-28T13:20:34;11.90;52.60
10903;DHT22;5504;47.312;11.060;2023-02-28T13:23:00;11.60;50.40
10903;DHT22;5504;47.312;11.060;2023-02-28T13:28:01;10.70;52.30
10903;DHT22;5504;47.312;11.060;2023-02-28T13:33:35;12.00;52.20
10903;DHT22;5504;47.312;11.060;2023-02-28T13:38:50;12.70;51.50
10903;DHT22;5504;47.312;11.060;2023-02-28T13:46:29;13.20;50.70
10903;DHT22;5504;47.312;11.060;2023-02-28T13:48:56;12.80;50.10
10903;DHT22;5504;47.312;11.060;2023-02-28T13:52:33;12.80;51.40
10903;DHT22;5504;47.312;11.060;2023-02-28T13:55:18;12.30;49.10
10903;DHT22;5504;47.312;11.060;2023-02-28T13:57:57;12.40;50.50
10903;DHT22;5504;47.312;11.060;2023-02-28T14:06:26;12.80;50.80
10903;DHT22;5504;47.312;11.060;2023-02-28T14:11:37;12.10;50.60
10903;DHT22;5504;47.312;11.060;2023-02-28T14:14:05;12.30;50.70
10903;DHT22;5504;47.312;11.060;2023-02-28T14:21:43;11.40;52.10
10903;DHT22;5504;47.312;11.060;2023-02-28T14:24:50;11.50;51.80
10903;DHT22;5504;47.312;11.060;2023-02-28T14:32:49;11.70;51.40
10903;DHT22;5504;47.312;11.060;2023-02-28T14:37:51;11.80;50.90
10903;DHT22;5504;47.312;11.060;2023-02-28T14:42:54;11.40;51.50
10903;DHT22;5504;47.312;11.060;2023-02-28T14:45:21;11.50;51.40
10903;DHT22;5504;47.312;11.060;2023-02-28T14:47:49;11.40;52.40
10903;DHT22;5504;47.312;11.060;2023-02-28T14:50:23;11.60;51.60
10903;DHT22;5504;47.312;11.060;2023-02-28T14:52:55;11.70;52.30
10903;DHT22;5504;47.312;11.060;2023-02-28T14:55:27;11.70;51.80
10903;DHT22;5504;47.312;11.060;2023-02-28T15:00:28;11.50;51.40
10903;DHT22;5504;47.312;11.060;2023-02-28T15:02:55;11.50;51.50
10903;DHT22;5504;47.312;11.060;2023-02-28T15:05:23;11.20;52.40
10903;DHT22;5504;47.312;11.060;2023-02-28T15:08:21;11.10;52.80
10903;DHT22;5504;47.312;11.060;2023-02-28T15:13:18;11.20;52.20
10903;DHT22;5504;47.312;11.060;2023-02-28T15:16:02;11.10;52.10
10903;DHT22;5504;47.312;11.060;2023-02-28T15:18:58;11.00;53.30
10903;DHT22;5504;47.312;11.060;2023-02-28T15:21:38;10.40;53.60
10903;DHT22;5504;47.312;11.060;2023-02-28T15:24:14;10.40;54.00
10903;DHT22;5504;47.312;11.060;2023-02-28T15:26:43;10.60;54.20
10903;DHT22;5504;47.312;11.060;2023-02-28T15:29:19;10.80;53.90
10903;DHT22;5504;47.312;11.060;2023-02-28T15:31:50;10.80;53.80
10903;DHT22;5504;47.312;11.060;2023-02-28T15:34:22;10.60;54.00
10903;DHT22;5504;47.312;11.060;2023-02-28T15:36:52;10.20;53.90
10903;DHT22;5504;47.312;11.060;2023-02-28T15:39:24;10.30;54.50
10903;DHT22;5504;47.312;11.060;2023-02-28T15:41:50;10.10;54.50
10903;DHT22;5504;47.312;11.060;2023-02-28T15:47:11;10.20;54.70
10903;DHT22;5504;47.312;11.060;2023-02-28T15:52:19;10.00;54.40
10903;DHT22;5504;47.312;11.060;2023-02-28T15:54:46;9.80;55.00
10903;DHT22;5504;47.312;11.060;2023-02-28T15:57:20;9.70;55.00
10903;DHT22;5504;47.312;11.060;2023-02-28T16:00:09;7.80;56.60
10903;DHT22;5504;47.312;11.060;2023-02-28T16:02:37;7.90;58.20
10903;DHT22;5504;47.312;11.060;2023-02-28T16:07:32;8.20;57.70
10903;DHT22;5504;47.312;11.060;2023-02-28T16:09:58;8.40;57.60
10903;DHT22;5504;47.312;11.060;2023-02-28T16:12:27;8.30;57.20
10903;DHT22;5504;47.312;11.060;2023-02-28T16:14:55;8.30;57.60
10903;DHT22;5504;47.312;11.060;2023-02-28T16:17:27;8.20;57.50
10903;DHT22;5504;47.312;11.060;2023-02-28T16:19:55;7.70;57.70
10903;DHT22;5504;47.312;11.060;2023-02-28T16:22:21;7.60;57.90
10903;DHT22;5504;47.312;11.060;2023-02-28T16:24:46;7.60;58.70
10903;DHT22;5504;47.312;11.060;2023-02-28T16:27:23;7.40;58.70
10903;DHT22;5504;47.312;11.060;2023-02-28T16:29:50;7.40;58.90
10903;DHT22;5504;47.312;11.060;2023-02-28T16:32:16;7.10;59.00
10903;DHT22;5504;47.312;11.060;2023-02-28T16:34:43;7.10;59.20
10903;DHT22;5504;47.312;11.060;2023-02-28T16:37:14;7.00;59.50
10903;DHT22;5504;47.312;11.060;2023-02-28T16:39:42;6.70;59.60
10903;DHT22;5504;47.312;11.060;2023-02-28T16:42:28;6.80;60.10
10903;DHT22;5504;47.312;11.060;2023-02-28T16:44:54;6.80;60.20
10903;DHT22;5504;47.312;11.060;2023-02-28T16:47:21;6.70;59.70
10903;DHT22;5504;47.312;11.060;2023-02-28T16:49:47;6.50;60.80
10903;DHT22;5504;47.312;11.060;2023-02-28T16:52:13;6.60;60.80
10903;DHT22;5504;47.312;11.060;2023-02-28T16:54:40;6.40;60.70
10903;DHT22;5504;47.312;11.060;2023-02-28T16:57:16;6.40;61.40
10903;DHT22;5504;47.312;11.060;2023-02-28T16:59:42;6.20;61.40
10903;DHT22;5504;47.312;11.060;2023-02-28T17:02:14;6.10;61.70
10903;DHT22;5504;47.312;11.060;2023-02-28T17:04:40;6.10;61.90
10903;DHT22;5504;47.312;11.060;2023-02-28T17:07:11;5.90;63.00
10903;DHT22;5504;47.312;11.060;2023-02-28T17:09:37;5.60;63.00
10903;DHT22;5504;47.312;11.060;2023-02-28T17:12:03;5.50;63.90
10903;DHT22;5504;47.312;11.060;2023-02-28T17:14:29;5.30;64.10
10903;DHT22;5504;47.312;11.060;2023-02-28T17:16:55;5.20;64.90
10903;DHT22;5504;47.312;11.060;2023-02-28T17:19:20;5.30;65.00
10903;DHT22;5504;47.312;11.060;2023-02-28T17:21:46;5.30;65.00
10903;DHT22;5504;47.312;11.060;2023-02-28T17:24:12;5.30;65.20
10903;DHT22;5504;47.312;11.060;2023-02-28T17:26:42;5.30;65.20
10903;DHT22;5504;47.312;11.060;2023-02-28T17:29:16;5.20;65.20
10903;DHT22;5504;47.312;11.060;2023-02-28T17:31:42;5.10;65.60
10903;DHT22;5504;47.312;11.060;2023-02-28T17:34:08;4.90;66.30
10903;DHT22;5504;47.312;11.060;2023-02-28T17:36:35;4.90;66.50
10903;DHT22;5504;47.312;11.060;2023-02-28T17:39:03;4.90;66.60
10903;DHT22;5504;47.312;11.060;2023-02-28T17:41:29;4.70;67.10
10903;DHT22;5504;47.312;11.060;2023-02-28T17:43:56;4.60;67.70
10903;DHT22;5504;47.312;11.060;2023-02-28T17:46:24;4.60;67.90
10903;DHT22;5504;47.312;11.060;2023-02-28T17:48:51;4.80;67.60
10903;DHT22;5504;47.312;11.060;2023-02-28T17:51:19;4.60;67.60
10903;DHT22;5504;47.312;11.060;2023-02-28T17:53:45;4.60;68.10
10903;DHT22;5504;47.312;11.060;2023-02-28T17:56:13;4.60;67.80
10903;DHT22;5504;47.312;11.060;2023-02-28T17:58:39;4.70;67.70
10903;DHT22;5504;47.312;11.060;2023-02-28T18:01:05;4.70;67.70
10903;DHT22;5504;47.312;11.060;2023-02-28T18:03:31;4.30;68.20
10903;DHT22;5504;47.312;11.060;2023-02-28T18:05:57;4.30;68.70
10903;DHT22;5504;47.312;11.060;2023-02-28T18:08:23;4.00;69.40
10903;DHT22;5504;47.312;11.060;2023-02-28T18:10:49;4.10;70.30
10903;DHT22;5504;47.312;11.060;2023-02-28T18:13:15;3.90;69.90
10903;DHT22;5504;47.312;11.060;2023-02-28T18:15:41;3.90;70.10
10903;DHT22;5504;47.312;11.060;2023-02-28T18:18:07;3.90;69.90
10903;DHT22;5504;47.312;11.060;2023-02-28T18:20:33;4.00;69.70
10903;DHT22;5504;47.312;11.060;2023-02-28T18:22:59;3.90;70.20
10903;DHT22;5504;47.312;11.060;2023-02-28T18:25:25;3.80;70.30
10903;DHT22;5504;47.312;11.060;2023-02-28T18:27:51;3.60;70.60
10903;DHT22;5504;47.312;11.060;2023-02-28T18:30:31;3.60;71.00
10903;DHT22;5504;47.312;11.060;2023-02-28T18:33:03;3.60;70.80
10903;DHT22;5504;47.312;11.060;2023-02-28T18:35:30;3.70;70.70
10903;DHT22;5504;47.312;11.060;2023-02-28T18:38:08;3.70;70.80